sensor_id;sensor_type;location;lat;lon;timestamp;pressure;altitude;pressure_sealevel;temperature;humidity
78892;BME280;68368;51.728;5.248;2023-12-28T00:01:59;100827.62;;;8.83;93.02
78892;BME280;68368;51.728;5.248;2023-12-28T00:04:04;100826.92;;;8.83;93.16
78892;BME280;68368;51.728;5.248;2023-12-28T00:06:09;100835.94;;;8.83;93.12
78892;BME280;68368;51.728;5.248;2023-12-28T00:08:14;100835.09;;;8.82;93.00
78892;BME280;68368;51.728;5.248;2023-12-28T00:10:19;100835.78;;;8.78;92.86
78892;BME280;68368;51.728;5.248;2023-12-28T00:12:24;100838.10;;;8.74;93.27
78892;BME280;68368;51.728;5.248;2023-12-28T00:14:29;100831.91;;;8.71;93.27
78892;BME280;68368;51.728;5.248;2023-12-28T00:16:35;100829.80;;;8.67;93.73
78892;BME280;68368;51.728;5.248;2023-12-28T00:18:40;100826.26;;;8.66;93.89
78892;BME280;68368;51.728;5.248;2023-12-28T00:20:45;100832.29;;;8.64;94.29
78892;BME280;68368;51.728;5.248;2023-12-28T00:22:50;100832.63;;;8.63;94.40
78892;BME280;68368;51.728;5.248;2023-12-28T00:24:55;100840.60;;;8.63;94.64
78892;BME280;68368;51.728;5.248;2023-12-28T00:27:01;100830.16;;;8.63;94.88
78892;BME280;68368;51.728;5.248;2023-12-28T00:29:05;100837.95;;;8.63;94.99
78892;BME280;68368;51.728;5.248;2023-12-28T00:31:13;100839.55;;;8.63;95.10
78892;BME280;68368;51.728;5.248;2023-12-28T00:33:18;100842.73;;;8.63;95.40
78892;BME280;68368;51.728;5.248;2023-12-28T00:35:24;100853.87;;;8.63;95.28
78892;BME280;68368;51.728;5.248;2023-12-28T00:37:29;100852.82;;;8.64;95.44
78892;BME280;68368;51.728;5.248;2023-12-28T00:39:36;100854.05;;;8.64;95.54
78892;BME280;68368;51.728;5.248;2023-12-28T00:41:42;100862.55;;;8.65;95.42
78892;BME280;68368;51.728;5.248;2023-12-28T00:43:47;100858.82;;;8.65;95.52
78892;BME280;68368;51.728;5.248;2023-12-28T00:45:55;100861.84;;;8.65;95.54
78892;BME280;68368;51.728;5.248;2023-12-28T00:47:59;100868.04;;;8.65;95.65
78892;BME280;68368;51.728;5.248;2023-12-28T00:50:05;100875.29;;;8.64;95.75
78892;BME280;68368;51.728;5.248;2023-12-28T00:52:10;100880.23;;;8.64;95.99
78892;BME280;68368;51.728;5.248;2023-12-28T00:54:15;100883.59;;;8.65;96.06
78892;BME280;68368;51.728;5.248;2023-12-28T00:56:20;100883.41;;;8.66;96.04
78892;BME280;68368;51.728;5.248;2023-12-28T00:58:25;100891.72;;;8.66;96.13
78892;BME280;68368;51.728;5.248;2023-12-28T01:00:33;100896.52;;;8.66;96.10
78892;BME280;68368;51.728;5.248;2023-12-28T01:02:46;100897.40;;;8.66;96.14
78892;BME280;68368;51.728;5.248;2023-12-28T01:04:52;100894.75;;;8.64;96.22
78892;BME280;68368;51.728;5.248;2023-12-28T01:06:56;100891.38;;;8.63;96.46
78892;BME280;68368;51.728;5.248;2023-12-28T01:09:01;100891.39;;;8.63;96.47
78892;BME280;68368;51.728;5.248;2023-12-28T01:11:06;100894.04;;;8.63;96.76
78892;BME280;68368;51.728;5.248;2023-12-28T01:13:12;100892.98;;;8.63;96.65
78892;BME280;68368;51.728;5.248;2023-12-28T01:15:17;100893.70;;;8.60;96.75
78892;BME280;68368;51.728;5.248;2023-12-28T01:17:24;100890.15;;;8.58;96.78
78892;BME280;68368;51.728;5.248;2023-12-28T01:19:29;100898.11;;;8.57;96.87
78892;BME280;68368;51.728;5.248;2023-12-28T01:21:35;100899.72;;;8.56;97.09
78892;BME280;68368;51.728;5.248;2023-12-28T01:23:40;100902.36;;;8.56;97.11
78892;BME280;68368;51.728;5.248;2023-12-28T01:25:45;100904.67;;;8.56;97.22
78892;BME280;68368;51.728;5.248;2023-12-28T01:27:53;100904.48;;;8.57;97.39
78892;BME280;68368;51.728;5.248;2023-12-28T01:29:58;100908.73;;;8.56;97.31
78892;BME280;68368;51.728;5.248;2023-12-28T01:32:05;100911.20;;;8.55;97.42
78892;BME280;68368;51.728;5.248;2023-12-28T01:34:10;100914.74;;;8.55;97.59
78892;BME280;68368;51.728;5.248;2023-12-28T01:36:22;100910.50;;;8.54;97.73
78892;BME280;68368;51.728;5.248;2023-12-28T01:38:27;100907.66;;;8.54;97.79
78892;BME280;68368;51.728;5.248;2023-12-28T01:40:32;100917.05;;;8.54;98.20
78892;BME280;68368;51.728;5.248;2023-12-28T01:42:38;100914.58;;;8.55;98.21
78892;BME280;68368;51.728;5.248;2023-12-28T01:44:45;100918.30;;;8.53;98.14
78892;BME280;68368;51.728;5.248;2023-12-28T01:46:51;100920.58;;;8.51;97.96
78892;BME280;68368;51.728;5.248;2023-12-28T01:48:56;100919.00;;;8.50;98.37
78892;BME280;68368;51.728;5.248;2023-12-28T01:51:01;100923.60;;;8.49;98.32
78892;BME280;68368;51.728;5.248;2023-12-28T01:53:07;100920.60;;;8.48;98.36
78892;BME280;68368;51.728;5.248;2023-12-28T01:55:14;100906.62;;;8.47;98.39
78892;BME280;68368;51.728;5.248;2023-12-28T01:57:19;100905.55;;;8.46;98.63
78892;BME280;68368;51.728;5.248;2023-12-28T01:59:25;100901.48;;;8.46;98.72
78892;BME280;68368;51.728;5.248;2023-12-28T02:01:29;100899.54;;;8.46;98.79
78892;BME280;68368;51.728;5.248;2023-12-28T02:03:35;100908.02;;;8.46;98.95
78892;BME280;68368;51.728;5.248;2023-12-28T02:05:40;100914.39;;;8.45;98.81
78892;BME280;68368;51.728;5.248;2023-12-28T02:07:47;100918.13;;;8.44;98.90
78892;BME280;68368;51.728;5.248;2023-12-28T02:09:52;100917.58;;;8.43;99.02
78892;BME280;68368;51.728;5.248;2023-12-28T02:11:58;100912.09;;;8.43;99.05
78892;BME280;68368;51.728;5.248;2023-12-28T02:14:03;100911.55;;;8.43;99.14
78892;BME280;68368;51.728;5.248;2023-12-28T02:16:16;100906.98;;;8.42;99.28
78892;BME280;68368;51.728;5.248;2023-12-28T02:18:25;100908.38;;;8.43;99.76
78892;BME280;68368;51.728;5.248;2023-12-28T02:20:34;100900.77;;;8.42;99.63
78892;BME280;68368;51.728;5.248;2023-12-28T02:22:39;100904.50;;;8.41;99.65
78892;BME280;68368;51.728;5.248;2023-12-28T02:25:08;100893.71;;;8.41;99.82
78892;BME280;68368;51.728;5.248;2023-12-28T02:27:13;100898.82;;;8.41;99.93
78892;BME280;68368;51.728;5.248;2023-12-28T02:29:19;100904.66;;;8.40;99.99
78892;BME280;68368;51.728;5.248;2023-12-28T02:31:28;100899.36;;;8.40;99.95
78892;BME280;68368;51.728;5.248;2023-12-28T02:33:43;100897.05;;;8.41;100.00
78892;BME280;68368;51.728;5.248;2023-12-28T02:35:57;100898.12;;;8.41;100.00
78892;BME280;68368;51.728;5.248;2023-12-28T02:38:08;100903.26;;;8.41;100.00
78892;BME280;68368;51.728;5.248;2023-12-28T02:40:16;100904.84;;;8.40;99.90
78892;BME280;68368;51.728;5.248;2023-12-28T02:42:22;100894.05;;;8.39;99.80
78892;BME280;68368;51.728;5.248;2023-12-28T02:44:29;100889.60;;;8.37;99.86
78892;BME280;68368;51.728;5.248;2023-12-28T02:46:34;100894.55;;;8.36;99.96
78892;BME280;68368;51.728;5.248;2023-12-28T02:48:39;100887.30;;;8.36;99.93
78892;BME280;68368;51.728;5.248;2023-12-28T02:50:48;100887.48;;;8.37;100.00
78892;BME280;68368;51.728;5.248;2023-12-28T02:52:53;100887.86;;;8.38;100.00
78892;BME280;68368;51.728;5.248;2023-12-28T02:54:58;100886.79;;;8.38;99.98
78892;BME280;68368;51.728;5.248;2023-12-28T02:57:04;100898.13;;;8.39;100.00
78892;BME280;68368;51.728;5.248;2023-12-28T02:59:09;100894.76;;;8.40;100.00
78892;BME280;68368;51.728;5.248;2023-12-28T03:01:14;100884.86;;;8.41;100.00
78892;BME280;68368;51.728;5.248;2023-12-28T03:03:20;100881.49;;;8.42;100.00
78892;BME280;68368;51.728;5.248;2023-12-28T03:05:25;100885.02;;;8.43;100.00
78892;BME280;68368;51.728;5.248;2023-12-28T03:07:30;100885.75;;;8.44;99.99
78892;BME280;68368;51.728;5.248;2023-12-28T03:09:35;100880.26;;;8.44;100.00
78892;BME280;68368;51.728;5.248;2023-12-28T03:11:40;100885.23;;;8.44;99.96
78892;BME280;68368;51.728;5.248;2023-12-28T03:13:45;100889.81;;;8.45;99.88
78892;BME280;68368;51.728;5.248;2023-12-28T03:15:49;100888.22;;;8.45;99.81
78892;BME280;68368;51.728;5.248;2023-12-28T03:17:55;100895.11;;;8.47;99.91
78892;BME280;68368;51.728;5.248;2023-12-28T03:20:01;100892.63;;;8.49;99.81
78892;BME280;68368;51.728;5.248;2023-12-28T03:22:06;100901.31;;;8.50;99.87
78892;BME280;68368;51.728;5.248;2023-12-28T03:24:11;100893.70;;;8.51;99.85
78892;BME280;68368;51.728;5.248;2023-12-28T03:26:16;100898.46;;;8.51;99.68
78892;BME280;68368;51.728;5.248;2023-12-28T03:28:23;100889.63;;;8.52;99.54
78892;BME280;68368;51.728;5.248;2023-12-28T03:30:28;100881.85;;;8.53;99.60
78892;BME280;68368;51.728;5.248;2023-12-28T03:32:33;100879.36;;;8.54;99.30
78892;BME280;68368;51.728;5.248;2023-12-28T03:34:39;100885.38;;;8.56;99.36
78892;BME280;68368;51.728;5.248;2023-12-28T03:36:44;100879.72;;;8.58;98.99
78892;BME280;68368;51.728;5.248;2023-12-28T03:38:49;100878.83;;;8.59;99.21
78892;BME280;68368;51.728;5.248;2023-12-28T03:40:53;100880.76;;;8.64;99.29
78892;BME280;68368;51.728;5.248;2023-12-28T03:42:58;100879.88;;;8.66;99.34
78892;BME280;68368;51.728;5.248;2023-12-28T03:45:04;100880.23;;;8.68;99.31
78892;BME280;68368;51.728;5.248;2023-12-28T03:47:10;100877.94;;;8.70;99.06
78892;BME280;68368;51.728;5.248;2023-12-28T03:49:18;100880.40;;;8.72;99.16
78892;BME280;68368;51.728;5.248;2023-12-28T03:51:23;100880.05;;;8.74;99.02
78892;BME280;68368;51.728;5.248;2023-12-28T03:53:28;100881.46;;;8.74;98.83
78892;BME280;68368;51.728;5.248;2023-12-28T03:55:32;100892.61;;;8.74;98.68
78892;BME280;68368;51.728;5.248;2023-12-28T03:57:38;100898.28;;;8.73;98.59
78892;BME280;68368;51.728;5.248;2023-12-28T03:59:44;100899.52;;;8.73;98.62
78892;BME280;68368;51.728;5.248;2023-12-28T04:01:50;100895.98;;;8.74;98.45
78892;BME280;68368;51.728;5.248;2023-12-28T04:03:55;100895.79;;;8.74;98.51
78892;BME280;68368;51.728;5.248;2023-12-28T04:05:59;100898.63;;;8.74;98.49
78892;BME280;68368;51.728;5.248;2023-12-28T04:08:05;100894.73;;;8.75;98.36
78892;BME280;68368;51.728;5.248;2023-12-28T04:10:13;100891.38;;;8.74;98.22
78892;BME280;68368;51.728;5.248;2023-12-28T04:12:18;100894.56;;;8.74;98.33
78892;BME280;68368;51.728;5.248;2023-12-28T04:14:27;100887.48;;;8.73;98.25
78892;BME280;68368;51.728;5.248;2023-12-28T04:16:32;100892.79;;;8.73;98.27
78892;BME280;68368;51.728;5.248;2023-12-28T04:18:37;100884.46;;;8.72;98.27
78892;BME280;68368;51.728;5.248;2023-12-28T04:20:43;100883.07;;;8.70;98.01
78892;BME280;68368;51.728;5.248;2023-12-28T04:22:48;100869.08;;;8.70;97.97
78892;BME280;68368;51.728;5.248;2023-12-28T04:24:54;100877.23;;;8.70;97.65
78892;BME280;68368;51.728;5.248;2023-12-28T04:27:01;100883.40;;;8.70;97.97
78892;BME280;68368;51.728;5.248;2023-12-28T04:29:07;100878.46;;;8.69;97.76
78892;BME280;68368;51.728;5.248;2023-12-28T04:31:12;100893.14;;;8.69;97.79
78892;BME280;68368;51.728;5.248;2023-12-28T04:33:20;100891.91;;;8.68;97.74
78892;BME280;68368;51.728;5.248;2023-12-28T04:35:25;100890.67;;;8.67;97.63
78892;BME280;68368;51.728;5.248;2023-12-28T04:37:30;100893.67;;;8.66;97.56
78892;BME280;68368;51.728;5.248;2023-12-28T04:39:36;100894.92;;;8.66;97.45
78892;BME280;68368;51.728;5.248;2023-12-28T04:41:42;100906.08;;;8.65;97.47
78892;BME280;68368;51.728;5.248;2023-12-28T04:43:47;100899.52;;;8.65;97.35
78892;BME280;68368;51.728;5.248;2023-12-28T04:45:53;100902.35;;;8.66;97.25
78892;BME280;68368;51.728;5.248;2023-12-28T04:47:58;100909.78;;;8.66;97.23
78892;BME280;68368;51.728;5.248;2023-12-28T04:50:04;100911.20;;;8.68;96.88
78892;BME280;68368;51.728;5.248;2023-12-28T04:52:10;100914.91;;;8.70;96.96
78892;BME280;68368;51.728;5.248;2023-12-28T04:54:16;100915.27;;;8.74;96.52
78892;BME280;68368;51.728;5.248;2023-12-28T04:56:22;100898.08;;;8.79;96.31
78892;BME280;68368;51.728;5.248;2023-12-28T04:58:27;100894.55;;;8.82;96.25
78892;BME280;68368;51.728;5.248;2023-12-28T05:00:32;100895.78;;;8.83;96.24
78892;BME280;68368;51.728;5.248;2023-12-28T05:02:37;100896.30;;;8.83;96.19
78892;BME280;68368;51.728;5.248;2023-12-28T05:04:42;100899.66;;;8.84;96.11
78892;BME280;68368;51.728;5.248;2023-12-28T05:06:47;100902.67;;;8.87;95.94
78892;BME280;68368;51.728;5.248;2023-12-28T05:08:53;100900.19;;;8.91;95.85
78892;BME280;68368;51.728;5.248;2023-12-28T05:10:58;100910.61;;;8.97;95.73
78892;BME280;68368;51.728;5.248;2023-12-28T05:13:03;100904.59;;;9.02;95.53
78892;BME280;68368;51.728;5.248;2023-12-28T05:15:10;100903.52;;;9.06;95.19
78892;BME280;68368;51.728;5.248;2023-12-28T05:17:15;100902.78;;;9.11;94.51
78892;BME280;68368;51.728;5.248;2023-12-28T05:19:20;100906.31;;;9.17;94.54
78892;BME280;68368;51.728;5.248;2023-12-28T05:21:25;100915.15;;;9.21;94.23
78892;BME280;68368;51.728;5.248;2023-12-28T05:23:31;100921.16;;;9.26;93.81
78892;BME280;68368;51.728;5.248;2023-12-28T05:25:37;100918.48;;;9.30;93.79
78892;BME280;68368;51.728;5.248;2023-12-28T05:27:42;100923.97;;;9.34;93.50
78892;BME280;68368;51.728;5.248;2023-12-28T05:29:48;100918.81;;;9.37;93.38
78892;BME280;68368;51.728;5.248;2023-12-28T05:31:52;100922.36;;;9.40;93.17
78892;BME280;68368;51.728;5.248;2023-12-28T05:33:59;100926.95;;;9.42;92.81
78892;BME280;68368;51.728;5.248;2023-12-28T05:36:08;100926.76;;;9.46;92.72
78892;BME280;68368;51.728;5.248;2023-12-28T05:38:25;100922.85;;;9.47;92.72
78892;BME280;68368;51.728;5.248;2023-12-28T05:40:30;100917.53;;;9.49;92.18
78892;BME280;68368;51.728;5.248;2023-12-28T05:42:35;100918.40;;;9.52;92.19
78892;BME280;68368;51.728;5.248;2023-12-28T05:44:41;100928.14;;;9.52;92.33
78892;BME280;68368;51.728;5.248;2023-12-28T05:46:46;100918.04;;;9.53;92.03
78892;BME280;68368;51.728;5.248;2023-12-28T05:48:51;100928.86;;;9.54;91.88
78892;BME280;68368;51.728;5.248;2023-12-28T05:50:58;100931.68;;;9.55;91.72
78892;BME280;68368;51.728;5.248;2023-12-28T05:53:03;100935.91;;;9.56;91.84
78892;BME280;68368;51.728;5.248;2023-12-28T05:55:09;100937.15;;;9.57;91.42
78892;BME280;68368;51.728;5.248;2023-12-28T05:57:14;100931.84;;;9.59;91.35
78892;BME280;68368;51.728;5.248;2023-12-28T05:59:20;100932.89;;;9.60;91.21
78892;BME280;68368;51.728;5.248;2023-12-28T06:01:27;100928.98;;;9.60;91.22
78892;BME280;68368;51.728;5.248;2023-12-28T06:03:32;100930.77;;;9.62;91.01
78892;BME280;68368;51.728;5.248;2023-12-28T06:05:39;100942.27;;;9.63;90.69
78892;BME280;68368;51.728;5.248;2023-12-28T06:07:44;100947.95;;;9.64;90.62
78892;BME280;68368;51.728;5.248;2023-12-28T06:09:49;100938.71;;;9.64;90.38
78892;BME280;68368;51.728;5.248;2023-12-28T06:11:54;100941.02;;;9.66;90.39
78892;BME280;68368;51.728;5.248;2023-12-28T06:13:59;100940.49;;;9.66;90.49
78892;BME280;68368;51.728;5.248;2023-12-28T06:16:05;100938.17;;;9.68;90.58
78892;BME280;68368;51.728;5.248;2023-12-28T06:18:10;100939.59;;;9.68;90.22
78892;BME280;68368;51.728;5.248;2023-12-28T06:20:18;100935.51;;;9.68;90.21
78892;BME280;68368;51.728;5.248;2023-12-28T06:22:23;100937.47;;;9.69;90.29
78892;BME280;68368;51.728;5.248;2023-12-28T06:24:28;100932.84;;;9.68;90.12
78892;BME280;68368;51.728;5.248;2023-12-28T06:26:33;100935.51;;;9.68;89.95
78892;BME280;68368;51.728;5.248;2023-12-28T06:28:41;100931.97;;;9.68;89.81
78892;BME280;68368;51.728;5.248;2023-12-28T06:30:46;100930.22;;;9.66;90.00
78892;BME280;68368;51.728;5.248;2023-12-28T06:32:51;100936.77;;;9.65;89.99
78892;BME280;68368;51.728;5.248;2023-12-28T06:34:56;100937.13;;;9.64;89.79
78892;BME280;68368;51.728;5.248;2023-12-28T06:37:04;100938.91;;;9.62;89.98
78892;BME280;68368;51.728;5.248;2023-12-28T06:39:09;100935.91;;;9.58;89.91
78892;BME280;68368;51.728;5.248;2023-12-28T06:41:17;100949.04;;;9.57;89.64
78892;BME280;68368;51.728;5.248;2023-12-28T06:43:22;100955.60;;;9.55;89.86
78892;BME280;68368;51.728;5.248;2023-12-28T06:45:27;100953.30;;;9.56;90.02
78892;BME280;68368;51.728;5.248;2023-12-28T06:47:32;100961.98;;;9.56;89.92
78892;BME280;68368;51.728;5.248;2023-12-28T06:49:37;100963.23;;;9.54;90.03
78892;BME280;68368;51.728;5.248;2023-12-28T06:51:43;100961.45;;;9.53;90.05
78892;BME280;68368;51.728;5.248;2023-12-28T06:53:50;100966.23;;;9.55;89.65
78892;BME280;68368;51.728;5.248;2023-12-28T06:55:55;100974.74;;;9.57;89.46
78892;BME280;68368;51.728;5.248;2023-12-28T06:58:00;100978.09;;;9.59;89.65
78892;BME280;68368;51.728;5.248;2023-12-28T07:00:08;100959.65;;;9.60;89.81
78892;BME280;68368;51.728;5.248;2023-12-28T07:02:14;100959.11;;;9.62;89.80
78892;BME280;68368;51.728;5.248;2023-12-28T07:04:20;100952.02;;;9.63;89.75
78892;BME280;68368;51.728;5.248;2023-12-28T07:06:25;100951.67;;;9.63;89.87
78892;BME280;68368;51.728;5.248;2023-12-28T07:08:30;100954.33;;;9.63;89.65
78892;BME280;68368;51.728;5.248;2023-12-28T07:10:37;100950.96;;;9.62;89.58
78892;BME280;68368;51.728;5.248;2023-12-28T07:12:42;100949.39;;;9.58;89.26
78892;BME280;68368;51.728;5.248;2023-12-28T07:14:47;100961.45;;;9.54;89.36
78892;BME280;68368;51.728;5.248;2023-12-28T07:16:52;100968.02;;;9.49;89.29
78892;BME280;68368;51.728;5.248;2023-12-28T07:18:59;100960.07;;;9.43;89.57
78892;BME280;68368;51.728;5.248;2023-12-28T07:21:04;100962.58;;;9.38;89.71
78892;BME280;68368;51.728;5.248;2023-12-28T07:23:09;100967.90;;;9.32;90.00
78892;BME280;68368;51.728;5.248;2023-12-28T07:25:17;100965.45;;;9.27;90.11
78892;BME280;68368;51.728;5.248;2023-12-28T07:27:23;100968.46;;;9.22;90.33
78892;BME280;68368;51.728;5.248;2023-12-28T07:29:27;100976.98;;;9.19;90.29
78892;BME280;68368;51.728;5.248;2023-12-28T07:31:33;100977.86;;;9.15;90.34
78892;BME280;68368;51.728;5.248;2023-12-28T07:33:39;100980.01;;;9.12;90.50
78892;BME280;68368;51.728;5.248;2023-12-28T07:35:44;100989.56;;;9.09;90.30
78892;BME280;68368;51.728;5.248;2023-12-28T07:37:49;100996.83;;;9.07;90.64
78892;BME280;68368;51.728;5.248;2023-12-28T07:39:55;100999.31;;;9.06;91.14
78892;BME280;68368;51.728;5.248;2023-12-28T07:42:01;100998.25;;;9.08;91.27
78892;BME280;68368;51.728;5.248;2023-12-28T07:44:06;101002.86;;;9.12;91.10
78892;BME280;68368;51.728;5.248;2023-12-28T07:46:14;101006.02;;;9.17;91.01
78892;BME280;68368;51.728;5.248;2023-12-28T07:48:20;101009.20;;;9.22;90.88
78892;BME280;68368;51.728;5.248;2023-12-28T07:50:27;101021.06;;;9.27;91.08
78892;BME280;68368;51.728;5.248;2023-12-28T07:52:32;101016.98;;;9.32;90.79
78892;BME280;68368;51.728;5.248;2023-12-28T07:54:37;101014.49;;;9.37;90.68
78892;BME280;68368;51.728;5.248;2023-12-28T07:56:48;101021.20;;;9.41;90.37
78892;BME280;68368;51.728;5.248;2023-12-28T07:58:53;101025.98;;;9.45;90.06
78892;BME280;68368;51.728;5.248;2023-12-28T08:01:01;101020.31;;;9.48;89.87
78892;BME280;68368;51.728;5.248;2023-12-28T08:03:06;101024.72;;;9.52;89.74
78892;BME280;68368;51.728;5.248;2023-12-28T08:05:12;101032.34;;;9.56;89.77
78892;BME280;68368;51.728;5.248;2023-12-28T08:07:27;101033.92;;;9.59;89.39
78892;BME280;68368;51.728;5.248;2023-12-28T08:09:33;101031.61;;;9.63;89.64
78892;BME280;68368;51.728;5.248;2023-12-28T08:11:40;101023.27;;;9.65;89.35
78892;BME280;68368;51.728;5.248;2023-12-28T08:13:46;101001.98;;;9.68;88.99
78892;BME280;68368;51.728;5.248;2023-12-28T08:15:52;101006.23;;;9.69;88.66
78892;BME280;68368;51.728;5.248;2023-12-28T08:17:57;100995.76;;;9.71;88.67
78892;BME280;68368;51.728;5.248;2023-12-28T08:20:08;100988.85;;;9.71;88.21
78892;BME280;68368;51.728;5.248;2023-12-28T08:22:14;100998.07;;;9.74;88.10
78892;BME280;68368;51.728;5.248;2023-12-28T08:24:19;100992.74;;;9.75;87.98
78892;BME280;68368;51.728;5.248;2023-12-28T08:26:24;100999.98;;;9.79;87.82
78892;BME280;68368;51.728;5.248;2023-12-28T08:28:29;101003.17;;;9.81;87.54
78892;BME280;68368;51.728;5.248;2023-12-28T08:30:34;101000.69;;;9.84;87.41
78892;BME280;68368;51.728;5.248;2023-12-28T08:32:38;101004.21;;;9.87;87.26
78892;BME280;68368;51.728;5.248;2023-12-28T08:34:44;101003.31;;;9.89;86.90
78892;BME280;68368;51.728;5.248;2023-12-28T08:36:48;101020.31;;;9.95;86.83
78892;BME280;68368;51.728;5.248;2023-12-28T08:38:54;101033.42;;;9.99;86.29
78892;BME280;68368;51.728;5.248;2023-12-28T08:41:00;101035.52;;;10.05;86.30
78892;BME280;68368;51.728;5.248;2023-12-28T08:43:05;101038.52;;;10.09;86.46
78892;BME280;68368;51.728;5.248;2023-12-28T08:45:11;101045.41;;;10.12;86.58
78892;BME280;68368;51.728;5.248;2023-12-28T08:47:19;101048.77;;;10.14;86.61
78892;BME280;68368;51.728;5.248;2023-12-28T08:49:24;101044.68;;;10.15;85.59
78892;BME280;68368;51.728;5.248;2023-12-28T08:51:29;101051.23;;;10.18;85.75
78892;BME280;68368;51.728;5.248;2023-12-28T08:53:35;101054.25;;;10.21;85.59
78892;BME280;68368;51.728;5.248;2023-12-28T08:55:40;101056.17;;;10.24;85.65
78892;BME280;68368;51.728;5.248;2023-12-28T08:57:47;101065.77;;;10.30;85.60
78892;BME280;68368;51.728;5.248;2023-12-28T08:59:53;101058.46;;;10.35;85.32
78892;BME280;68368;51.728;5.248;2023-12-28T09:01:59;101064.83;;;10.38;85.05
78892;BME280;68368;51.728;5.248;2023-12-28T09:04:07;101070.86;;;10.40;84.99
78892;BME280;68368;51.728;5.248;2023-12-28T09:06:13;101074.92;;;10.43;85.06
78892;BME280;68368;51.728;5.248;2023-12-28T09:08:17;101072.59;;;10.46;85.23
78892;BME280;68368;51.728;5.248;2023-12-28T09:10:24;101073.99;;;10.49;84.51
78892;BME280;68368;51.728;5.248;2023-12-28T09:12:27;101066.88;;;10.52;84.23
78892;BME280;68368;51.728;5.248;2023-12-28T09:14:34;101071.30;;;10.53;84.14
78892;BME280;68368;51.728;5.248;2023-12-28T09:16:40;101073.05;;;10.56;84.20
78892;BME280;68368;51.728;5.248;2023-12-28T09:18:45;101078.55;;;10.58;83.73
78892;BME280;68368;51.728;5.248;2023-12-28T09:20:55;101079.59;;;10.60;83.77
78892;BME280;68368;51.728;5.248;2023-12-28T09:23:01;101082.79;;;10.61;83.69
78892;BME280;68368;51.728;5.248;2023-12-28T09:25:07;101080.30;;;10.63;83.07
78892;BME280;68368;51.728;5.248;2023-12-28T09:27:12;101075.48;;;10.65;82.58
78892;BME280;68368;51.728;5.248;2023-12-28T09:29:17;101082.05;;;10.68;82.67
78892;BME280;68368;51.728;5.248;2023-12-28T09:31:22;101085.56;;;10.73;82.70
78892;BME280;68368;51.728;5.248;2023-12-28T09:33:27;101082.88;;;10.77;82.71
78892;BME280;68368;51.728;5.248;2023-12-28T09:35:32;101088.70;;;10.82;82.43
78892;BME280;68368;51.728;5.248;2023-12-28T09:37:38;101093.63;;;10.88;82.19
78892;BME280;68368;51.728;5.248;2023-12-28T09:39:43;101099.44;;;10.94;81.93
78892;BME280;68368;51.728;5.248;2023-12-28T09:41:58;101101.50;;;11.02;81.72
78892;BME280;68368;51.728;5.248;2023-12-28T09:44:11;101103.90;;;11.13;80.95
78892;BME280;68368;51.728;5.248;2023-12-28T09:46:16;101107.52;;;11.27;81.21
78892;BME280;68368;51.728;5.248;2023-12-28T09:48:22;101103.16;;;11.38;80.41
78892;BME280;68368;51.728;5.248;2023-12-28T09:50:27;101108.60;;;11.44;79.85
78892;BME280;68368;51.728;5.248;2023-12-28T09:52:32;101106.80;;;11.48;79.39
78892;BME280;68368;51.728;5.248;2023-12-28T09:54:38;101117.98;;;11.51;79.30
78892;BME280;68368;51.728;5.248;2023-12-28T09:56:43;101110.50;;;11.52;78.80
78892;BME280;68368;51.728;5.248;2023-12-28T09:58:50;101114.56;;;11.54;79.19
78892;BME280;68368;51.728;5.248;2023-12-28T10:00:56;101117.35;;;11.59;78.60
78892;BME280;68368;51.728;5.248;2023-12-28T10:03:00;101123.75;;;11.61;78.61
78892;BME280;68368;51.728;5.248;2023-12-28T10:05:08;101123.02;;;11.63;78.29
78892;BME280;68368;51.728;5.248;2023-12-28T10:07:16;101119.42;;;11.67;77.67
78892;BME280;68368;51.728;5.248;2023-12-28T10:09:24;101112.83;;;11.68;78.25
78892;BME280;68368;51.728;5.248;2023-12-28T10:11:30;101111.61;;;11.67;78.49
78892;BME280;68368;51.728;5.248;2023-12-28T10:13:37;101113.38;;;11.67;78.26
78892;BME280;68368;51.728;5.248;2023-12-28T10:15:46;101110.71;;;11.66;78.12
78892;BME280;68368;51.728;5.248;2023-12-28T10:17:52;101110.05;;;11.62;77.96
78892;BME280;68368;51.728;5.248;2023-12-28T10:19:57;101114.55;;;11.56;77.42
78892;BME280;68368;51.728;5.248;2023-12-28T10:22:03;101116.88;;;11.53;77.60
78892;BME280;68368;51.728;5.248;2023-12-28T10:24:08;101120.60;;;11.55;77.52
78892;BME280;68368;51.728;5.248;2023-12-28T10:26:17;101126.06;;;11.60;78.00
78892;BME280;68368;51.728;5.248;2023-12-28T10:28:23;101118.71;;;11.67;78.16
78892;BME280;68368;51.728;5.248;2023-12-28T10:30:29;101116.33;;;11.73;78.06
78892;BME280;68368;51.728;5.248;2023-12-28T10:32:34;101134.09;;;11.76;77.48
78892;BME280;68368;51.728;5.248;2023-12-28T10:34:39;101133.85;;;11.82;77.20
78892;BME280;68368;51.728;5.248;2023-12-28T10:36:47;101134.70;;;11.88;77.11
78892;BME280;68368;51.728;5.248;2023-12-28T10:38:58;101135.17;;;11.95;77.72
78892;BME280;68368;51.728;5.248;2023-12-28T10:41:07;101128.88;;;12.00;76.58
78892;BME280;68368;51.728;5.248;2023-12-28T10:43:17;101132.90;;;12.06;76.46
78892;BME280;68368;51.728;5.248;2023-12-28T10:45:26;101136.95;;;12.09;76.32
78892;BME280;68368;51.728;5.248;2023-12-28T10:47:36;101132.65;;;12.12;76.06
78892;BME280;68368;51.728;5.248;2023-12-28T10:49:43;101128.69;;;12.16;76.01
78892;BME280;68368;51.728;5.248;2023-12-28T10:51:52;101129.73;;;12.18;75.44
78892;BME280;68368;51.728;5.248;2023-12-28T10:54:16;101112.83;;;12.19;75.50
78892;BME280;68368;51.728;5.248;2023-12-28T10:56:33;101111.19;;;12.22;74.96
78892;BME280;68368;51.728;5.248;2023-12-28T10:58:49;101109.94;;;12.22;74.72
78892;BME280;68368;51.728;5.248;2023-12-28T11:00:59;101112.39;;;12.25;75.16
78892;BME280;68368;51.728;5.248;2023-12-28T11:03:06;101104.01;;;12.27;74.92
78892;BME280;68368;51.728;5.248;2023-12-28T11:05:14;101102.90;;;12.30;75.45
78892;BME280;68368;51.728;5.248;2023-12-28T11:07:22;101097.51;;;12.33;75.48